sensor_id;sensor_type;location;lat;lon;timestamp;P1;durP1;ratioP1;P2;durP2;ratioP2
52248;SDS011;38541;48.130;8.378;2022-09-27T00:02:15;0.68;;;0.68;;
52248;SDS011;38541;48.130;8.378;2022-09-27T00:04:42;0.50;;;0.50;;
52248;SDS011;38541;48.130;8.378;2022-09-27T00:07:08;0.75;;;0.60;;
52248;SDS011;38541;48.130;8.378;2022-09-27T00:09:36;0.50;;;0.50;;
52248;SDS011;38541;48.130;8.378;2022-09-27T00:12:02;0.57;;;0.57;;
52248;SDS011;38541;48.130;8.378;2022-09-27T00:14:29;0.50;;;0.50;;
52248;SDS011;38541;48.130;8.378;2022-09-27T00:16:56;0.50;;;0.50;;
52248;SDS011;38541;48.130;8.378;2022-09-27T00:19:22;0.50;;;0.50;;
52248;SDS011;38541;48.130;8.378;2022-09-27T00:21:49;0.50;;;0.50;;
52248;SDS011;38541;48.130;8.378;2022-09-27T00:24:19;0.40;;;0.40;;
52248;SDS011;38541;48.130;8.378;2022-09-27T00:26:47;0.50;;;0.50;;
52248;SDS011;38541;48.130;8.378;2022-09-27T00:29:15;0.40;;;0.40;;
52248;SDS011;38541;48.130;8.378;2022-09-27T00:31:43;0.50;;;0.50;;
52248;SDS011;38541;48.130;8.378;2022-09-27T00:34:15;0.50;;;0.50;;
52248;SDS011;38541;48.130;8.378;2022-09-27T00:36:45;0.57;;;0.57;;
52248;SDS011;38541;48.130;8.378;2022-09-27T00:39:13;0.52;;;0.52;;
52248;SDS011;38541;48.130;8.378;2022-09-27T00:41:40;0.40;;;0.40;;
52248;SDS011;38541;48.130;8.378;2022-09-27T00:46:55;0.50;;;0.50;;
52248;SDS011;38541;48.130;8.378;2022-09-27T00:49:35;0.40;;;0.40;;
52248;SDS011;38541;48.130;8.378;2022-09-27T00:52:16;2.38;;;0.40;;
52248;SDS011;38541;48.130;8.378;2022-09-27T00:54:48;0.40;;;0.40;;
52248;SDS011;38541;48.130;8.378;2022-09-27T00:57:18;0.30;;;0.30;;
52248;SDS011;38541;48.130;8.378;2022-09-27T00:59:58;0.40;;;0.40;;
52248;SDS011;38541;48.130;8.378;2022-09-27T01:02:28;0.32;;;0.32;;
52248;SDS011;38541;48.130;8.378;2022-09-27T01:04:56;0.35;;;0.35;;
52248;SDS011;38541;48.130;8.378;2022-09-27T01:07:23;0.40;;;0.40;;
52248;SDS011;38541;48.130;8.378;2022-09-27T01:09:49;0.40;;;0.40;;
52248;SDS011;38541;48.130;8.378;2022-09-27T01:12:27;0.50;;;0.50;;
52248;SDS011;38541;48.130;8.378;2022-09-27T01:23:41;0.40;;;0.40;;
52248;SDS011;38541;48.130;8.378;2022-09-27T01:32:06;0.60;;;0.60;;
52248;SDS011;38541;48.130;8.378;2022-09-27T01:37:49;0.45;;;0.45;;
52248;SDS011;38541;48.130;8.378;2022-09-27T01:40:38;0.40;;;0.40;;
52248;SDS011;38541;48.130;8.378;2022-09-27T01:46:33;0.30;;;0.30;;
52248;SDS011;38541;48.130;8.378;2022-09-27T01:49:18;0.45;;;0.45;;
52248;SDS011;38541;48.130;8.378;2022-09-27T01:51:54;0.50;;;0.50;;
52248;SDS011;38541;48.130;8.378;2022-09-27T01:54:27;1.15;;;0.60;;
52248;SDS011;38541;48.130;8.378;2022-09-27T01:57:37;0.40;;;0.40;;
52248;SDS011;38541;48.130;8.378;2022-09-27T02:00:15;0.50;;;0.50;;
52248;SDS011;38541;48.130;8.378;2022-09-27T02:02:43;0.60;;;0.60;;
52248;SDS011;38541;48.130;8.378;2022-09-27T02:05:31;0.60;;;0.60;;
52248;SDS011;38541;48.130;8.378;2022-09-27T02:08:19;0.85;;;0.60;;
52248;SDS011;38541;48.130;8.378;2022-09-27T02:10:52;0.60;;;0.60;;
52248;SDS011;38541;48.130;8.378;2022-09-27T02:13:23;0.50;;;0.50;;
52248;SDS011;38541;48.130;8.378;2022-09-27T02:21:19;1.58;;;0.98;;
52248;SDS011;38541;48.130;8.378;2022-09-27T02:23:47;1.42;;;1.17;;
52248;SDS011;38541;48.130;8.378;2022-09-27T02:26:19;0.90;;;0.90;;
52248;SDS011;38541;48.130;8.378;2022-09-27T02:28:54;0.70;;;0.70;;
52248;SDS011;38541;48.130;8.378;2022-09-27T02:31:32;0.77;;;0.77;;
52248;SDS011;38541;48.130;8.378;2022-09-27T02:34:00;1.48;;;0.90;;
52248;SDS011;38541;48.130;8.378;2022-09-27T02:36:30;1.85;;;0.90;;
52248;SDS011;38541;48.130;8.378;2022-09-27T02:38:57;1.95;;;1.05;;
52248;SDS011;38541;48.130;8.378;2022-09-27T02:41:25;0.75;;;0.75;;
52248;SDS011;38541;48.130;8.378;2022-09-27T02:43:53;0.88;;;0.88;;
52248;SDS011;38541;48.130;8.378;2022-09-27T03:04:41;1.77;;;1.40;;
52248;SDS011;38541;48.130;8.378;2022-09-27T03:07:12;3.65;;;1.58;;
52248;SDS011;38541;48.130;8.378;2022-09-27T03:09:44;4.03;;;2.20;;
52248;SDS011;38541;48.130;8.378;2022-09-27T03:12:13;4.65;;;2.25;;
52248;SDS011;38541;48.130;8.378;2022-09-27T03:14:45;4.03;;;1.85;;
52248;SDS011;38541;48.130;8.378;2022-09-27T03:17:44;2.63;;;1.80;;
52248;SDS011;38541;48.130;8.378;2022-09-27T03:20:28;1.98;;;1.55;;
52248;SDS011;38541;48.130;8.378;2022-09-27T03:23:15;4.63;;;1.75;;
52248;SDS011;38541;48.130;8.378;2022-09-27T03:25:42;3.20;;;1.90;;
52248;SDS011;38541;48.130;8.378;2022-09-27T03:28:10;2.65;;;1.42;;
52248;SDS011;38541;48.130;8.378;2022-09-27T03:30:39;2.25;;;1.38;;
52248;SDS011;38541;48.130;8.378;2022-09-27T03:33:08;1.75;;;1.40;;
52248;SDS011;38541;48.130;8.378;2022-09-27T03:35:47;2.20;;;2.00;;
52248;SDS011;38541;48.130;8.378;2022-09-27T03:38:14;2.15;;;1.67;;
52248;SDS011;38541;48.130;8.378;2022-09-27T03:40:40;2.40;;;1.80;;
52248;SDS011;38541;48.130;8.378;2022-09-27T03:43:08;2.25;;;1.40;;
52248;SDS011;38541;48.130;8.378;2022-09-27T03:45:35;4.25;;;2.28;;
52248;SDS011;38541;48.130;8.378;2022-09-27T03:48:07;2.08;;;1.67;;
52248;SDS011;38541;48.130;8.378;2022-09-27T03:50:34;3.03;;;1.60;;
52248;SDS011;38541;48.130;8.378;2022-09-27T03:53:01;5.80;;;2.47;;
52248;SDS011;38541;48.130;8.378;2022-09-27T03:55:27;2.25;;;1.95;;
52248;SDS011;38541;48.130;8.378;2022-09-27T03:57:54;2.22;;;2.03;;
52248;SDS011;38541;48.130;8.378;2022-09-27T04:00:20;1.40;;;1.25;;
52248;SDS011;38541;48.130;8.378;2022-09-27T04:02:47;1.20;;;1.10;;
52248;SDS011;38541;48.130;8.378;2022-09-27T04:05:23;0.50;;;0.50;;
52248;SDS011;38541;48.130;8.378;2022-09-27T04:08:01;1.90;;;1.23;;
52248;SDS011;38541;48.130;8.378;2022-09-27T04:10:30;0.73;;;0.65;;
52248;SDS011;38541;48.130;8.378;2022-09-27T04:12:57;0.70;;;0.70;;
52248;SDS011;38541;48.130;8.378;2022-09-27T04:15:27;2.75;;;0.88;;
52248;SDS011;38541;48.130;8.378;2022-09-27T04:18:12;1.02;;;0.95;;
52248;SDS011;38541;48.130;8.378;2022-09-27T04:21:01;1.20;;;1.10;;
52248;SDS011;38541;48.130;8.378;2022-09-27T04:23:30;1.58;;;1.48;;
52248;SDS011;38541;48.130;8.378;2022-09-27T04:25:57;4.07;;;1.40;;
52248;SDS011;38541;48.130;8.378;2022-09-27T04:28:44;1.45;;;1.25;;
52248;SDS011;38541;48.130;8.378;2022-09-27T04:31:16;1.73;;;1.30;;
52248;SDS011;38541;48.130;8.378;2022-09-27T04:33:50;3.05;;;1.65;;
52248;SDS011;38541;48.130;8.378;2022-09-27T04:36:19;1.15;;;1.05;;
52248;SDS011;38541;48.130;8.378;2022-09-27T04:39:05;0.90;;;0.80;;
52248;SDS011;38541;48.130;8.378;2022-09-27T04:41:37;1.08;;;0.73;;
52248;SDS011;38541;48.130;8.378;2022-09-27T04:44:03;2.40;;;1.25;;
52248;SDS011;38541;48.130;8.378;2022-09-27T04:46:32;0.70;;;0.70;;
52248;SDS011;38541;48.130;8.378;2022-09-27T04:49:00;0.77;;;0.63;;
52248;SDS011;38541;48.130;8.378;2022-09-27T04:51:28;1.50;;;1.00;;
52248;SDS011;38541;48.130;8.378;2022-09-27T04:53:55;1.13;;;0.95;;
52248;SDS011;38541;48.130;8.378;2022-09-27T04:56:32;0.80;;;0.80;;
52248;SDS011;38541;48.130;8.378;2022-09-27T04:59:01;0.65;;;0.50;;
52248;SDS011;38541;48.130;8.378;2022-09-27T05:01:33;1.25;;;1.02;;
52248;SDS011;38541;48.130;8.378;2022-09-27T05:04:12;1.70;;;0.93;;
52248;SDS011;38541;48.130;8.378;2022-09-27T05:06:44;1.55;;;1.20;;
52248;SDS011;38541;48.130;8.378;2022-09-27T05:09:22;1.50;;;1.00;;
52248;SDS011;38541;48.130;8.378;2022-09-27T05:11:52;1.02;;;0.80;;
52248;SDS011;38541;48.130;8.378;2022-09-27T05:14:34;3.03;;;1.90;;
52248;SDS011;38541;48.130;8.378;2022-09-27T05:17:14;1.83;;;1.02;;
52248;SDS011;38541;48.130;8.378;2022-09-27T05:20:01;2.10;;;1.50;;
52248;SDS011;38541;48.130;8.378;2022-09-27T05:22:49;2.70;;;1.50;;
52248;SDS011;38541;48.130;8.378;2022-09-27T05:25:15;2.13;;;1.60;;
52248;SDS011;38541;48.130;8.378;2022-09-27T05:27:42;2.70;;;2.05;;
52248;SDS011;38541;48.130;8.378;2022-09-27T05:30:09;2.80;;;1.30;;
52248;SDS011;38541;48.130;8.378;2022-09-27T05:32:44;2.17;;;1.38;;
52248;SDS011;38541;48.130;8.378;2022-09-27T05:35:32;1.75;;;1.25;;
52248;SDS011;38541;48.130;8.378;2022-09-27T05:38:01;1.02;;;1.02;;
52248;SDS011;38541;48.130;8.378;2022-09-27T05:40:33;1.88;;;1.13;;
52248;SDS011;38541;48.130;8.378;2022-09-27T05:43:08;2.00;;;1.05;;
52248;SDS011;38541;48.130;8.378;2022-09-27T05:45:35;0.70;;;0.70;;
52248;SDS011;38541;48.130;8.378;2022-09-27T05:48:03;0.70;;;0.70;;
52248;SDS011;38541;48.130;8.378;2022-09-27T05:50:34;0.80;;;0.80;;
52248;SDS011;38541;48.130;8.378;2022-09-27T05:53:01;1.27;;;0.88;;
52248;SDS011;38541;48.130;8.378;2022-09-27T05:55:28;0.88;;;0.88;;
52248;SDS011;38541;48.130;8.378;2022-09-27T05:57:56;0.60;;;0.60;;
52248;SDS011;38541;48.130;8.378;2022-09-27T06:00:45;0.88;;;0.88;;
52248;SDS011;38541;48.130;8.378;2022-09-27T06:03:32;0.65;;;0.65;;
52248;SDS011;38541;48.130;8.378;2022-09-27T06:06:17;1.00;;;1.00;;
52248;SDS011;38541;48.130;8.378;2022-09-27T06:08:48;1.23;;;0.70;;
52248;SDS011;38541;48.130;8.378;2022-09-27T06:11:17;1.05;;;0.75;;
52248;SDS011;38541;48.130;8.378;2022-09-27T06:13:45;0.93;;;0.70;;
52248;SDS011;38541;48.130;8.378;2022-09-27T06:16:12;0.75;;;0.75;;
52248;SDS011;38541;48.130;8.378;2022-09-27T06:18:41;0.60;;;0.60;;
52248;SDS011;38541;48.130;8.378;2022-09-27T06:21:09;0.57;;;0.57;;
52248;SDS011;38541;48.130;8.378;2022-09-27T06:23:36;0.50;;;0.50;;
52248;SDS011;38541;48.130;8.378;2022-09-27T06:26:16;0.60;;;0.60;;
52248;SDS011;38541;48.130;8.378;2022-09-27T06:28:50;0.50;;;0.50;;
52248;SDS011;38541;48.130;8.378;2022-09-27T06:31:17;0.70;;;0.70;;
52248;SDS011;38541;48.130;8.378;2022-09-27T06:33:51;1.30;;;0.70;;
52248;SDS011;38541;48.130;8.378;2022-09-27T06:36:18;3.50;;;2.38;;
52248;SDS011;38541;48.130;8.378;2022-09-27T06:38:45;1.63;;;1.50;;
52248;SDS011;38541;48.130;8.378;2022-09-27T06:41:19;0.98;;;0.90;;
52248;SDS011;38541;48.130;8.378;2022-09-27T06:46:41;2.63;;;1.42;;
52248;SDS011;38541;48.130;8.378;2022-09-27T06:49:41;4.13;;;2.38;;
52248;SDS011;38541;48.130;8.378;2022-09-27T06:52:08;1.92;;;1.60;;
52248;SDS011;38541;48.130;8.378;2022-09-27T06:54:35;1.65;;;1.23;;
52248;SDS011;38541;48.130;8.378;2022-09-27T06:57:02;1.63;;;1.45;;
52248;SDS011;38541;48.130;8.378;2022-09-27T06:59:28;8.73;;;1.63;;
52248;SDS011;38541;48.130;8.378;2022-09-27T07:02:32;2.28;;;1.60;;
52248;SDS011;38541;48.130;8.378;2022-09-27T07:05:16;2.13;;;1.30;;
52248;SDS011;38541;48.130;8.378;2022-09-27T07:07:51;2.70;;;1.40;;
52248;SDS011;38541;48.130;8.378;2022-09-27T07:10:24;1.70;;;1.40;;
52248;SDS011;38541;48.130;8.378;2022-09-27T07:12:53;2.40;;;1.30;;
52248;SDS011;38541;48.130;8.378;2022-09-27T07:15:20;1.10;;;1.00;;
52248;SDS011;38541;48.130;8.378;2022-09-27T07:17:54;0.93;;;0.93;;
52248;SDS011;38541;48.130;8.378;2022-09-27T07:20:27;1.23;;;1.13;;
52248;SDS011;38541;48.130;8.378;2022-09-27T07:22:57;1.00;;;0.88;;
52248;SDS011;38541;48.130;8.378;2022-09-27T07:25:24;1.45;;;1.17;;
52248;SDS011;38541;48.130;8.378;2022-09-27T07:27:51;2.33;;;0.90;;
52248;SDS011;38541;48.130;8.378;2022-09-27T07:30:18;0.90;;;0.90;;
52248;SDS011;38541;48.130;8.378;2022-09-27T07:32:47;1.08;;;0.98;;
52248;SDS011;38541;48.130;8.378;2022-09-27T07:35:15;0.80;;;0.80;;
52248;SDS011;38541;48.130;8.378;2022-09-27T07:37:42;1.05;;;1.02;;
52248;SDS011;38541;48.130;8.378;2022-09-27T07:40:12;1.08;;;0.93;;
52248;SDS011;38541;48.130;8.378;2022-09-27T07:42:39;1.85;;;0.90;;
52248;SDS011;38541;48.130;8.378;2022-09-27T07:45:09;1.63;;;1.10;;
52248;SDS011;38541;48.130;8.378;2022-09-27T07:47:47;1.33;;;1.00;;
52248;SDS011;38541;48.130;8.378;2022-09-27T07:50:31;1.33;;;1.10;;
52248;SDS011;38541;48.130;8.378;2022-09-27T07:53:08;1.00;;;1.00;;
52248;SDS011;38541;48.130;8.378;2022-09-27T07:55:52;0.90;;;0.90;;
52248;SDS011;38541;48.130;8.378;2022-09-27T07:58:22;1.02;;;1.02;;
52248;SDS011;38541;48.130;8.378;2022-09-27T08:00:52;1.33;;;1.15;;
52248;SDS011;38541;48.130;8.378;2022-09-27T08:03:19;1.23;;;1.13;;
52248;SDS011;38541;48.130;8.378;2022-09-27T08:05:46;1.75;;;1.55;;
52248;SDS011;38541;48.130;8.378;2022-09-27T08:08:14;1.80;;;1.33;;
52248;SDS011;38541;48.130;8.378;2022-09-27T08:10:43;1.58;;;1.48;;
52248;SDS011;38541;48.130;8.378;2022-09-27T08:13:13;3.03;;;1.20;;
52248;SDS011;38541;48.130;8.378;2022-09-27T08:15:40;0.93;;;0.93;;
52248;SDS011;38541;48.130;8.378;2022-09-27T08:18:07;1.23;;;1.13;;
52248;SDS011;38541;48.130;8.378;2022-09-27T08:21:09;1.20;;;1.10;;
52248;SDS011;38541;48.130;8.378;2022-09-27T08:23:58;1.30;;;1.17;;
52248;SDS011;38541;48.130;8.378;2022-09-27T08:26:51;2.92;;;1.02;;
52248;SDS011;38541;48.130;8.378;2022-09-27T08:29:26;1.40;;;1.30;;
52248;SDS011;38541;48.130;8.378;2022-09-27T08:31:54;3.25;;;2.08;;
52248;SDS011;38541;48.130;8.378;2022-09-27T08:34:21;1.50;;;1.40;;
52248;SDS011;38541;48.130;8.378;2022-09-27T08:36:48;3.13;;;1.60;;
52248;SDS011;38541;48.130;8.378;2022-09-27T08:39:14;2.05;;;1.60;;
52248;SDS011;38541;48.130;8.378;2022-09-27T08:44:51;3.10;;;2.20;;
52248;SDS011;38541;48.130;8.378;2022-09-27T08:47:36;2.10;;;1.83;;
52248;SDS011;38541;48.130;8.378;2022-09-27T08:50:16;2.45;;;2.20;;
52248;SDS011;38541;48.130;8.378;2022-09-27T08:55:26;1.70;;;1.60;;
52248;SDS011;38541;48.130;8.378;2022-09-27T08:57:58;2.50;;;1.50;;
52248;SDS011;38541;48.130;8.378;2022-09-27T09:00:26;2.10;;;1.33;;
52248;SDS011;38541;48.130;8.378;2022-09-27T09:02:56;2.75;;;1.73;;
52248;SDS011;38541;48.130;8.378;2022-09-27T09:05:27;1.38;;;1.33;;
52248;SDS011;38541;48.130;8.378;2022-09-27T09:10:50;1.17;;;1.08;;
52248;SDS011;38541;48.130;8.378;2022-09-27T09:14:06;0.93;;;0.90;;
52248;SDS011;38541;48.130;8.378;2022-09-27T09:17:03;3.33;;;1.55;;
52248;SDS011;38541;48.130;8.378;2022-09-27T09:20:09;1.08;;;1.08;;
52248;SDS011;38541;48.130;8.378;2022-09-27T09:22:59;1.00;;;1.00;;
52248;SDS011;38541;48.130;8.378;2022-09-27T09:25:48;0.90;;;0.90;;
52248;SDS011;38541;48.130;8.378;2022-09-27T09:31:41;0.90;;;0.70;;
52248;SDS011;38541;48.130;8.378;2022-09-27T09:34:16;1.25;;;0.90;;
52248;SDS011;38541;48.130;8.378;2022-09-27T09:36:56;0.80;;;0.80;;
52248;SDS011;38541;48.130;8.378;2022-09-27T09:39:32;0.75;;;0.70;;
52248;SDS011;38541;48.130;8.378;2022-09-27T09:47:03;0.50;;;0.50;;
52248;SDS011;38541;48.130;8.378;2022-09-27T09:49:45;0.95;;;0.73;;
52248;SDS011;38541;48.130;8.378;2022-09-27T09:52:17;0.65;;;0.60;;
52248;SDS011;38541;48.130;8.378;2022-09-27T09:54:50;0.80;;;0.80;;
52248;SDS011;38541;48.130;8.378;2022-09-27T09:57:32;2.17;;;1.13;;
52248;SDS011;38541;48.130;8.378;2022-09-27T10:02:41;0.77;;;0.77;;
52248;SDS011;38541;48.130;8.378;2022-09-27T10:05:18;0.60;;;0.60;;
52248;SDS011;38541;48.130;8.378;2022-09-27T10:07:51;1.15;;;0.90;;
52248;SDS011;38541;48.130;8.378;2022-09-27T10:10:20;0.80;;;0.80;;
52248;SDS011;38541;48.130;8.378;2022-09-27T10:13:07;0.77;;;0.77;;
52248;SDS011;38541;48.130;8.378;2022-09-27T10:15:48;1.13;;;0.70;;
52248;SDS011;38541;48.130;8.378;2022-09-27T10:18:35;0.85;;;0.85;;
52248;SDS011;38541;48.130;8.378;2022-09-27T10:21:05;0.75;;;0.75;;
52248;SDS011;38541;48.130;8.378;2022-09-27T10:24:00;0.80;;;0.80;;
52248;SDS011;38541;48.130;8.378;2022-09-27T10:27:06;0.90;;;0.90;;
52248;SDS011;38541;48.130;8.378;2022-09-27T10:29:35;0.98;;;0.75;;
52248;SDS011;38541;48.130;8.378;2022-09-27T10:32:23;0.85;;;0.85;;
52248;SDS011;38541;48.130;8.378;2022-09-27T10:40:50;0.75;;;0.70;;
52248;SDS011;38541;48.130;8.378;2022-09-27T10:43:23;2.65;;;1.70;;
52248;SDS011;38541;48.130;8.378;2022-09-27T10:48:34;1.85;;;0.90;;
52248;SDS011;38541;48.130;8.378;2022-09-27T10:51:06;0.63;;;0.63;;
52248;SDS011;38541;48.130;8.378;2022-09-27T10:53:48;1.25;;;0.95;;
52248;SDS011;38541;48.130;8.378;2022-09-27T10:56:27;0.82;;;0.82;;
52248;SDS011;38541;48.130;8.378;2022-09-27T10:58:56;0.80;;;0.80;;
52248;SDS011;38541;48.130;8.378;2022-09-27T11:01:26;1.20;;;0.80;;
52248;SDS011;38541;48.130;8.378;2022-09-27T11:04:27;1.33;;;0.77;;
52248;SDS011;38541;48.130;8.378;2022-09-27T11:07:06;0.80;;;0.70;;
52248;SDS011;38541;48.130;8.378;2022-09-27T11:09:47;1.70;;;0.82;;
52248;SDS011;38541;48.130;8.378;2022-09-27T11:12:21;0.70;;;0.70;;
52248;SDS011;38541;48.130;8.378;2022-09-27T11:14:51;1.45;;;0.70;;
52248;SDS011;38541;48.130;8.378;2022-09-27T11:17:24;0.70;;;0.70;;
52248;SDS011;38541;48.130;8.378;2022-09-27T11:20:16;1.00;;;0.90;;
52248;SDS011;38541;48.130;8.378;2022-09-27T11:22:57;1.02;;;0.70;;
52248;SDS011;38541;48.130;8.378;2022-09-27T11:28:47;0.70;;;0.70;;
52248;SDS011;38541;48.130;8.378;2022-09-27T11:37:06;1.17;;;0.88;;
52248;SDS011;38541;48.130;8.378;2022-09-27T11:42:27;3.00;;;0.90;;
52248;SDS011;38541;48.130;8.378;2022-09-27T11:50:59;1.70;;;1.15;;
52248;SDS011;38541;48.130;8.378;2022-09-27T11:53:47;0.68;;;0.68;;
52248;SDS011;38541;48.130;8.378;2022-09-27T11:56:47;1.27;;;1.00;;
52248;SDS011;38541;48.130;8.378;2022-09-27T12:07:38;1.98;;;1.05;;
52248;SDS011;38541;48.130;8.378;2022-09-27T12:10:27;1.98;;;1.02;;
52248;SDS011;38541;48.130;8.378;2022-09-27T12:12:54;1.65;;;1.02;;
52248;SDS011;38541;48.130;8.378;2022-09-27T12:15:27;0.93;;;0.93;;
52248;SDS011;38541;48.130;8.378;2022-09-27T12:18:08;0.88;;;0.82;;
52248;SDS011;38541;48.130;8.378;2022-09-27T12:20:42;2.45;;;2.00;;
52248;SDS011;38541;48.130;8.378;2022-09-27T12:23:17;3.92;;;1.52;;
52248;SDS011;38541;48.130;8.378;2022-09-27T12:28:56;1.08;;;0.90;;
52248;SDS011;38541;48.130;8.378;2022-09-27T12:34:50;0.60;;;0.60;;
52248;SDS011;38541;48.130;8.378;2022-09-27T12:40:04;0.60;;;0.60;;
52248;SDS011;38541;48.130;8.378;2022-09-27T12:42:44;0.60;;;0.60;;
52248;SDS011;38541;48.130;8.378;2022-09-27T12:50:49;0.90;;;0.70;;
52248;SDS011;38541;48.130;8.378;2022-09-27T12:53:20;0.75;;;0.75;;
52248;SDS011;38541;48.130;8.378;2022-09-27T12:56:05;0.77;;;0.70;;
52248;SDS011;38541;48.130;8.378;2022-09-27T13:12:28;1.00;;;0.80;;
52248;SDS011;38541;48.130;8.378;2022-09-27T13:14:58;0.95;;;0.65;;
52248;SDS011;38541;48.130;8.378;2022-09-27T13:22:57;0.63;;;0.63;;
52248;SDS011;38541;48.130;8.378;2022-09-27T13:48:18;0.77;;;0.77;;
52248;SDS011;38541;48.130;8.378;2022-09-27T13:50:51;1.90;;;1.02;;
52248;SDS011;38541;48.130;8.378;2022-09-27T13:53:30;0.50;;;0.50;;
52248;SDS011;38541;48.130;8.378;2022-09-27T13:56:45;0.60;;;0.60;;
52248;SDS011;38541;48.130;8.378;2022-09-27T13:59:04;0.75;;;0.70;;
52248;SDS011;38541;48.130;8.378;2022-09-27T14:01:42;1.10;;;1.00;;
52248;SDS011;38541;48.130;8.378;2022-09-27T14:04:19;0.60;;;0.60;;
52248;SDS011;38541;48.130;8.378;2022-09-27T14:06:57;0.60;;;0.60;;
52248;SDS011;38541;48.130;8.378;2022-09-27T14:09:28;0.70;;;0.70;;
52248;SDS011;38541;48.130;8.378;2022-09-27T14:12:14;0.85;;;0.85;;
52248;SDS011;38541;48.130;8.378;2022-09-27T14:14:44;0.60;;;0.60;;
52248;SDS011;38541;48.130;8.378;2022-09-27T14:17:14;0.70;;;0.70;;
52248;SDS011;38541;48.130;8.378;2022-09-27T14:19:43;0.90;;;0.90;;
52248;SDS011;38541;48.130;8.378;2022-09-27T14:22:13;1.02;;;0.93;;
52248;SDS011;38541;48.130;8.378;2022-09-27T14:24:51;0.60;;;0.60;;
52248;SDS011;38541;48.130;8.378;2022-09-27T14:30:27;0.50;;;0.50;;
52248;SDS011;38541;48.130;8.378;2022-09-27T14:33:23;2.55;;;1.02;;
52248;SDS011;38541;48.130;8.378;2022-09-27T14:35:53;0.57;;;0.57;;
52248;SDS011;38541;48.130;8.378;2022-09-27T14:38:39;0.50;;;0.50;;
52248;SDS011;38541;48.130;8.378;2022-09-27T14:41:18;0.60;;;0.60;;
52248;SDS011;38541;48.130;8.378;2022-09-27T14:43:45;0.70;;;0.70;;
52248;SDS011;38541;48.130;8.378;2022-09-27T14:46:26;2.25;;;0.88;;
52248;SDS011;38541;48.130;8.378;2022-09-27T14:48:54;1.30;;;1.13;;
52248;SDS011;38541;48.130;8.378;2022-09-27T14:51:28;1.15;;;0.70;;
52248;SDS011;38541;48.130;8.378;2022-09-27T14:53:57;0.70;;;0.70;;
52248;SDS011;38541;48.130;8.378;2022-09-27T14:56:28;0.70;;;0.70;;
52248;SDS011;38541;48.130;8.378;2022-09-27T14:59:02;0.80;;;0.80;;
52248;SDS011;38541;48.130;8.378;2022-09-27T15:01:30;0.80;;;0.80;;
52248;SDS011;38541;48.130;8.378;2022-09-27T15:04:04;0.80;;;0.80;;
52248;SDS011;38541;48.130;8.378;2022-09-27T15:06:34;1.10;;;1.00;;
52248;SDS011;38541;48.130;8.378;2022-09-27T15:09:02;0.70;;;0.70;;
52248;SDS011;38541;48.130;8.378;2022-09-27T15:11:30;0.70;;;0.70;;
52248;SDS011;38541;48.130;8.378;2022-09-27T15:13:59;0.70;;;0.70;;
52248;SDS011;38541;48.130;8.378;2022-09-27T15:16:28;0.80;;;0.80;;
52248;SDS011;38541;48.130;8.378;2022-09-27T15:19:00;1.13;;;1.00;;
52248;SDS011;38541;48.130;8.378;2022-09-27T15:21:40;1.63;;;0.80;;
52248;SDS011;38541;48.130;8.378;2022-09-27T15:24:34;1.17;;;1.17;;
52248;SDS011;38541;48.130;8.378;2022-09-27T15:27:04;1.00;;;0.90;;
52248;SDS011;38541;48.130;8.378;2022-09-27T15:29:38;1.10;;;1.00;;
52248;SDS011;38541;48.130;8.378;2022-09-27T15:32:05;0.93;;;0.93;;
52248;SDS011;38541;48.130;8.378;2022-09-27T15:34:33;0.60;;;0.60;;
52248;SDS011;38541;48.130;8.378;2022-09-27T15:37:02;0.80;;;0.80;;
52248;SDS011;38541;48.130;8.378;2022-09-27T15:39:31;1.65;;;1.08;;
52248;SDS011;38541;48.130;8.378;2022-09-27T15:42:10;1.05;;;0.90;;
52248;SDS011;38541;48.130;8.378;2022-09-27T15:49:57;0.80;;;0.80;;
52248;SDS011;38541;48.130;8.378;2022-09-27T15:52:43;0.90;;;0.90;;
52248;SDS011;38541;48.130;8.378;2022-09-27T15:55:18;1.10;;;1.00;;
52248;SDS011;38541;48.130;8.378;2022-09-27T15:57:48;0.95;;;0.95;;
52248;SDS011;38541;48.130;8.378;2022-09-27T16:00:19;1.27;;;0.90;;
52248;SDS011;38541;48.130;8.378;2022-09-27T16:02:46;2.30;;;1.30;;
52248;SDS011;38541;48.130;8.378;2022-09-27T16:05:12;1.25;;;1.00;;
52248;SDS011;38541;48.130;8.378;2022-09-27T16:07:39;0.80;;;0.80;;
52248;SDS011;38541;48.130;8.378;2022-09-27T16:10:12;1.02;;;0.90;;
52248;SDS011;38541;48.130;8.378;2022-09-27T16:12:41;1.00;;;0.90;;
52248;SDS011;38541;48.130;8.378;2022-09-27T16:15:10;0.80;;;0.80;;
52248;SDS011;38541;48.130;8.378;2022-09-27T16:17:38;0.90;;;0.90;;
52248;SDS011;38541;48.130;8.378;2022-09-27T16:22:44;1.67;;;1.00;;
52248;SDS011;38541;48.130;8.378;2022-09-27T16:25:11;1.02;;;0.80;;
52248;SDS011;38541;48.130;8.378;2022-09-27T16:27:37;1.00;;;0.60;;
52248;SDS011;38541;48.130;8.378;2022-09-27T16:30:04;1.00;;;0.60;;
52248;SDS011;38541;48.130;8.378;2022-09-27T16:32:31;0.70;;;0.70;;
52248;SDS011;38541;48.130;8.378;2022-09-27T16:34:58;1.02;;;0.90;;
52248;SDS011;38541;48.130;8.378;2022-09-27T16:37:24;0.80;;;0.80;;
52248;SDS011;38541;48.130;8.378;2022-09-27T16:39:51;0.70;;;0.70;;
52248;SDS011;38541;48.130;8.378;2022-09-27T16:42:17;0.95;;;0.73;;
52248;SDS011;38541;48.130;8.378;2022-09-27T16:44:43;0.60;;;0.60;;
52248;SDS011;38541;48.130;8.378;2022-09-27T16:47:10;0.60;;;0.60;;
52248;SDS011;38541;48.130;8.378;2022-09-27T16:49:36;1.45;;;0.98;;
52248;SDS011;38541;48.130;8.378;2022-09-27T16:52:21;0.70;;;0.70;;
52248;SDS011;38541;48.130;8.378;2022-09-27T16:54:48;0.80;;;0.80;;
52248;SDS011;38541;48.130;8.378;2022-09-27T16:57:14;0.73;;;0.73;;
52248;SDS011;38541;48.130;8.378;2022-09-27T16:59:40;0.77;;;0.70;;
52248;SDS011;38541;48.130;8.378;2022-09-27T17:02:08;0.70;;;0.70;;
52248;SDS011;38541;48.130;8.378;2022-09-27T17:04:35;0.90;;;0.90;;
52248;SDS011;38541;48.130;8.378;2022-09-27T17:07:01;1.02;;;1.02;;
52248;SDS011;38541;48.130;8.378;2022-09-27T17:09:28;1.00;;;0.75;;
52248;SDS011;38541;48.130;8.378;2022-09-27T17:11:54;0.70;;;0.70;;
52248;SDS011;38541;48.130;8.378;2022-09-27T17:14:21;0.60;;;0.60;;
52248;SDS011;38541;48.130;8.378;2022-09-27T17:16:48;0.70;;;0.70;;
52248;SDS011;38541;48.130;8.378;2022-09-27T17:19:15;1.13;;;0.80;;
52248;SDS011;38541;48.130;8.378;2022-09-27T17:21:44;0.60;;;0.60;;
52248;SDS011;38541;48.130;8.378;2022-09-27T17:24:11;0.80;;;0.80;;
52248;SDS011;38541;48.130;8.378;2022-09-27T17:26:38;0.90;;;0.73;;
52248;SDS011;38541;48.130;8.378;2022-09-27T17:29:05;0.90;;;0.90;;
52248;SDS011;38541;48.130;8.378;2022-09-27T17:31:32;1.35;;;0.85;;
52248;SDS011;38541;48.130;8.378;2022-09-27T17:34:02;1.90;;;1.13;;
52248;SDS011;38541;48.130;8.378;2022-09-27T17:36:29;1.90;;;1.00;;
52248;SDS011;38541;48.130;8.378;2022-09-27T17:39:00;0.90;;;0.90;;
52248;SDS011;38541;48.130;8.378;2022-09-27T17:41:27;0.88;;;0.85;;
52248;SDS011;38541;48.130;8.378;2022-09-27T17:43:58;1.48;;;0.90;;
52248;SDS011;38541;48.130;8.378;2022-09-27T17:48:53;0.98;;;0.98;;
52248;SDS011;38541;48.130;8.378;2022-09-27T17:51:39;0.80;;;0.80;;
52248;SDS011;38541;48.130;8.378;2022-09-27T17:54:07;0.80;;;0.80;;
52248;SDS011;38541;48.130;8.378;2022-09-27T17:56:36;0.60;;;0.60;;
52248;SDS011;38541;48.130;8.378;2022-09-27T17:59:03;1.02;;;0.75;;
52248;SDS011;38541;48.130;8.378;2022-09-27T18:01:31;1.50;;;0.70;;
52248;SDS011;38541;48.130;8.378;2022-09-27T18:03:58;0.70;;;0.70;;
52248;SDS011;38541;48.130;8.378;2022-09-27T18:06:26;0.90;;;0.90;;
52248;SDS011;38541;48.130;8.378;2022-09-27T18:08:54;1.48;;;0.90;;
52248;SDS011;38541;48.130;8.378;2022-09-27T18:11:22;0.70;;;0.70;;
52248;SDS011;38541;48.130;8.378;2022-09-27T18:13:56;0.75;;;0.70;;
52248;SDS011;38541;48.130;8.378;2022-09-27T18:16:28;0.52;;;0.52;;
52248;SDS011;38541;48.130;8.378;2022-09-27T18:18:57;0.60;;;0.60;;
52248;SDS011;38541;48.130;8.378;2022-09-27T18:21:25;3.22;;;1.90;;